sensor_id;sensor_type;location;lat;lon;timestamp;P1;durP1;ratioP1;P2;durP2;ratioP2
64225;SDS011;50545;56.064;26.178;2022-10-30T00:01:13;5.78;;;2.03;;
64225;SDS011;50545;56.064;26.178;2022-10-30T00:03:40;7.13;;;1.80;;
64225;SDS011;50545;56.064;26.178;2022-10-30T00:06:07;6.95;;;2.65;;
64225;SDS011;50545;56.064;26.178;2022-10-30T00:08:34;6.78;;;1.75;;
64225;SDS011;50545;56.064;26.178;2022-10-30T00:11:08;6.13;;;2.10;;
64225;SDS011;50545;56.064;26.178;2022-10-30T00:13:37;6.70;;;1.80;;
64225;SDS011;50545;56.064;26.178;2022-10-30T00:16:05;5.72;;;1.88;;
64225;SDS011;50545;56.064;26.178;2022-10-30T00:18:34;6.22;;;1.65;;
64225;SDS011;50545;56.064;26.178;2022-10-30T00:21:07;11.55;;;2.33;;
64225;SDS011;50545;56.064;26.178;2022-10-30T00:23:38;5.15;;;1.65;;
64225;SDS011;50545;56.064;26.178;2022-10-30T00:26:12;9.10;;;2.05;;
64225;SDS011;50545;56.064;26.178;2022-10-30T00:28:40;5.45;;;1.90;;
64225;SDS011;50545;56.064;26.178;2022-10-30T00:31:07;6.15;;;1.80;;
64225;SDS011;50545;56.064;26.178;2022-10-30T00:33:35;6.47;;;1.63;;
64225;SDS011;50545;56.064;26.178;2022-10-30T00:36:02;6.88;;;1.67;;
64225;SDS011;50545;56.064;26.178;2022-10-30T00:38:30;7.45;;;2.00;;
64225;SDS011;50545;56.064;26.178;2022-10-30T00:40:58;8.45;;;1.75;;
64225;SDS011;50545;56.064;26.178;2022-10-30T00:46:11;6.85;;;1.60;;
64225;SDS011;50545;56.064;26.178;2022-10-30T00:48:43;6.65;;;1.63;;
64225;SDS011;50545;56.064;26.178;2022-10-30T00:51:14;4.78;;;1.40;;
64225;SDS011;50545;56.064;26.178;2022-10-30T00:53:42;6.82;;;2.28;;
64225;SDS011;50545;56.064;26.178;2022-10-30T00:56:10;6.47;;;1.88;;
64225;SDS011;50545;56.064;26.178;2022-10-30T00:58:40;6.30;;;2.15;;
64225;SDS011;50545;56.064;26.178;2022-10-30T01:01:12;6.07;;;1.83;;
64225;SDS011;50545;56.064;26.178;2022-10-30T01:03:45;6.45;;;1.80;;
64225;SDS011;50545;56.064;26.178;2022-10-30T01:06:14;7.88;;;1.92;;
64225;SDS011;50545;56.064;26.178;2022-10-30T01:08:43;7.32;;;1.70;;
64225;SDS011;50545;56.064;26.178;2022-10-30T01:11:11;6.07;;;1.75;;
64225;SDS011;50545;56.064;26.178;2022-10-30T01:13:39;7.05;;;1.83;;
64225;SDS011;50545;56.064;26.178;2022-10-30T01:18:41;7.53;;;1.70;;
64225;SDS011;50545;56.064;26.178;2022-10-30T01:21:27;5.10;;;1.77;;
64225;SDS011;50545;56.064;26.178;2022-10-30T01:32:52;9.95;;;1.92;;
64225;SDS011;50545;56.064;26.178;2022-10-30T01:38:10;5.03;;;1.40;;
64225;SDS011;50545;56.064;26.178;2022-10-30T01:40:38;8.68;;;1.80;;
64225;SDS011;50545;56.064;26.178;2022-10-30T01:43:05;7.13;;;1.80;;
64225;SDS011;50545;56.064;26.178;2022-10-30T01:51:19;4.60;;;1.80;;
64225;SDS011;50545;56.064;26.178;2022-10-30T01:57:22;5.25;;;1.50;;
64225;SDS011;50545;56.064;26.178;2022-10-30T02:00:09;5.80;;;1.77;;
64225;SDS011;50545;56.064;26.178;2022-10-30T02:02:39;6.05;;;1.70;;
64225;SDS011;50545;56.064;26.178;2022-10-30T02:05:08;8.82;;;1.98;;
64225;SDS011;50545;56.064;26.178;2022-10-30T02:07:39;6.22;;;1.50;;
64225;SDS011;50545;56.064;26.178;2022-10-30T02:10:06;4.20;;;1.63;;
64225;SDS011;50545;56.064;26.178;2022-10-30T02:12:34;4.13;;;1.25;;
64225;SDS011;50545;56.064;26.178;2022-10-30T02:15:01;6.47;;;1.80;;
64225;SDS011;50545;56.064;26.178;2022-10-30T02:17:28;5.85;;;1.42;;
64225;SDS011;50545;56.064;26.178;2022-10-30T02:19:56;5.25;;;1.50;;
64225;SDS011;50545;56.064;26.178;2022-10-30T02:22:23;7.25;;;2.03;;
64225;SDS011;50545;56.064;26.178;2022-10-30T02:24:50;4.25;;;1.40;;
64225;SDS011;50545;56.064;26.178;2022-10-30T02:27:17;5.88;;;2.08;;
64225;SDS011;50545;56.064;26.178;2022-10-30T02:29:45;6.57;;;1.70;;
64225;SDS011;50545;56.064;26.178;2022-10-30T02:32:12;5.45;;;1.60;;
64225;SDS011;50545;56.064;26.178;2022-10-30T02:34:39;5.47;;;1.55;;
64225;SDS011;50545;56.064;26.178;2022-10-30T02:37:08;8.27;;;1.90;;
64225;SDS011;50545;56.064;26.178;2022-10-30T02:39:35;7.22;;;1.77;;
64225;SDS011;50545;56.064;26.178;2022-10-30T02:42:03;5.35;;;1.60;;
64225;SDS011;50545;56.064;26.178;2022-10-30T02:44:31;7.32;;;1.88;;
64225;SDS011;50545;56.064;26.178;2022-10-30T02:46:58;4.57;;;1.55;;
64225;SDS011;50545;56.064;26.178;2022-10-30T02:49:26;7.53;;;1.70;;
64225;SDS011;50545;56.064;26.178;2022-10-30T02:51:53;5.10;;;1.33;;
64225;SDS011;50545;56.064;26.178;2022-10-30T02:54:21;8.10;;;1.80;;
64225;SDS011;50545;56.064;26.178;2022-10-30T02:56:48;8.98;;;2.15;;
64225;SDS011;50545;56.064;26.178;2022-10-30T02:59:15;7.90;;;2.03;;
64225;SDS011;50545;56.064;26.178;2022-10-30T03:01:43;5.07;;;1.85;;
64225;SDS011;50545;56.064;26.178;2022-10-30T03:04:10;5.47;;;1.80;;
64225;SDS011;50545;56.064;26.178;2022-10-30T03:06:37;3.00;;;1.13;;
64225;SDS011;50545;56.064;26.178;2022-10-30T03:09:05;6.07;;;1.58;;
64225;SDS011;50545;56.064;26.178;2022-10-30T03:11:32;7.07;;;1.67;;
64225;SDS011;50545;56.064;26.178;2022-10-30T03:14:00;7.10;;;1.45;;
64225;SDS011;50545;56.064;26.178;2022-10-30T03:16:27;4.50;;;1.38;;
64225;SDS011;50545;56.064;26.178;2022-10-30T03:18:55;7.30;;;1.77;;
64225;SDS011;50545;56.064;26.178;2022-10-30T03:21:25;5.72;;;1.45;;
64225;SDS011;50545;56.064;26.178;2022-10-30T03:23:53;5.80;;;1.52;;
64225;SDS011;50545;56.064;26.178;2022-10-30T03:26:21;6.88;;;1.80;;
64225;SDS011;50545;56.064;26.178;2022-10-30T03:28:48;4.68;;;1.45;;
64225;SDS011;50545;56.064;26.178;2022-10-30T03:31:16;6.75;;;1.50;;
64225;SDS011;50545;56.064;26.178;2022-10-30T03:33:44;5.82;;;1.48;;
64225;SDS011;50545;56.064;26.178;2022-10-30T03:36:13;6.28;;;1.42;;
64225;SDS011;50545;56.064;26.178;2022-10-30T03:38:41;4.03;;;1.67;;
64225;SDS011;50545;56.064;26.178;2022-10-30T03:41:08;6.72;;;1.65;;
64225;SDS011;50545;56.064;26.178;2022-10-30T03:43:36;6.88;;;1.35;;
64225;SDS011;50545;56.064;26.178;2022-10-30T03:46:03;5.85;;;1.70;;
64225;SDS011;50545;56.064;26.178;2022-10-30T03:48:30;4.55;;;1.40;;
64225;SDS011;50545;56.064;26.178;2022-10-30T03:50:58;9.88;;;1.65;;
64225;SDS011;50545;56.064;26.178;2022-10-30T03:53:25;3.78;;;1.25;;
64225;SDS011;50545;56.064;26.178;2022-10-30T03:55:57;5.65;;;1.70;;
64225;SDS011;50545;56.064;26.178;2022-10-30T03:58:26;3.92;;;1.40;;
64225;SDS011;50545;56.064;26.178;2022-10-30T04:00:59;4.95;;;1.92;;
64225;SDS011;50545;56.064;26.178;2022-10-30T04:03:27;5.43;;;1.70;;
64225;SDS011;50545;56.064;26.178;2022-10-30T04:05:54;6.28;;;1.80;;
64225;SDS011;50545;56.064;26.178;2022-10-30T04:08:21;6.63;;;1.70;;
64225;SDS011;50545;56.064;26.178;2022-10-30T04:10:48;5.35;;;1.42;;
64225;SDS011;50545;56.064;26.178;2022-10-30T04:13:16;7.55;;;1.63;;
64225;SDS011;50545;56.064;26.178;2022-10-30T04:15:46;6.70;;;1.85;;
64225;SDS011;50545;56.064;26.178;2022-10-30T04:18:22;8.25;;;2.10;;
64225;SDS011;50545;56.064;26.178;2022-10-30T04:20:50;8.20;;;1.65;;
64225;SDS011;50545;56.064;26.178;2022-10-30T04:23:18;6.00;;;1.60;;
64225;SDS011;50545;56.064;26.178;2022-10-30T04:25:47;4.45;;;1.77;;
64225;SDS011;50545;56.064;26.178;2022-10-30T04:28:14;4.50;;;1.45;;
64225;SDS011;50545;56.064;26.178;2022-10-30T04:30:42;8.00;;;2.10;;
64225;SDS011;50545;56.064;26.178;2022-10-30T04:33:11;6.13;;;1.83;;
64225;SDS011;50545;56.064;26.178;2022-10-30T04:35:39;8.68;;;2.08;;
64225;SDS011;50545;56.064;26.178;2022-10-30T04:38:11;7.07;;;1.60;;
64225;SDS011;50545;56.064;26.178;2022-10-30T04:40:40;8.50;;;1.75;;
64225;SDS011;50545;56.064;26.178;2022-10-30T04:43:09;6.85;;;1.80;;
64225;SDS011;50545;56.064;26.178;2022-10-30T04:45:37;5.13;;;1.65;;
64225;SDS011;50545;56.064;26.178;2022-10-30T04:48:16;4.85;;;1.42;;
64225;SDS011;50545;56.064;26.178;2022-10-30T04:50:44;6.70;;;1.70;;
64225;SDS011;50545;56.064;26.178;2022-10-30T04:53:12;4.40;;;1.60;;
64225;SDS011;50545;56.064;26.178;2022-10-30T04:55:41;7.03;;;1.80;;
64225;SDS011;50545;56.064;26.178;2022-10-30T04:58:10;5.43;;;1.52;;
64225;SDS011;50545;56.064;26.178;2022-10-30T05:00:38;6.43;;;1.60;;
64225;SDS011;50545;56.064;26.178;2022-10-30T05:03:05;5.53;;;1.55;;
64225;SDS011;50545;56.064;26.178;2022-10-30T05:05:32;5.85;;;1.50;;
64225;SDS011;50545;56.064;26.178;2022-10-30T05:08:00;5.60;;;1.70;;
64225;SDS011;50545;56.064;26.178;2022-10-30T05:10:28;5.18;;;1.77;;
64225;SDS011;50545;56.064;26.178;2022-10-30T05:12:55;6.40;;;2.13;;
64225;SDS011;50545;56.064;26.178;2022-10-30T05:15:22;8.73;;;1.70;;
64225;SDS011;50545;56.064;26.178;2022-10-30T05:17:50;5.78;;;1.73;;
64225;SDS011;50545;56.064;26.178;2022-10-30T05:20:19;3.15;;;1.20;;
64225;SDS011;50545;56.064;26.178;2022-10-30T05:22:53;6.93;;;2.03;;
64225;SDS011;50545;56.064;26.178;2022-10-30T05:25:22;6.72;;;1.90;;
64225;SDS011;50545;56.064;26.178;2022-10-30T05:27:49;5.85;;;1.45;;
64225;SDS011;50545;56.064;26.178;2022-10-30T05:30:22;4.03;;;1.27;;
64225;SDS011;50545;56.064;26.178;2022-10-30T05:32:49;3.95;;;1.48;;
64225;SDS011;50545;56.064;26.178;2022-10-30T05:35:16;6.05;;;1.67;;
64225;SDS011;50545;56.064;26.178;2022-10-30T05:37:44;5.85;;;1.50;;
64225;SDS011;50545;56.064;26.178;2022-10-30T05:40:11;4.45;;;1.40;;
64225;SDS011;50545;56.064;26.178;2022-10-30T05:42:43;7.20;;;1.70;;
64225;SDS011;50545;56.064;26.178;2022-10-30T05:45:13;4.43;;;1.23;;
64225;SDS011;50545;56.064;26.178;2022-10-30T05:47:41;6.47;;;1.33;;
64225;SDS011;50545;56.064;26.178;2022-10-30T05:50:09;5.40;;;1.55;;
64225;SDS011;50545;56.064;26.178;2022-10-30T05:52:39;2.97;;;1.10;;
64225;SDS011;50545;56.064;26.178;2022-10-30T05:55:06;3.95;;;1.00;;
64225;SDS011;50545;56.064;26.178;2022-10-30T05:57:34;3.28;;;1.15;;
64225;SDS011;50545;56.064;26.178;2022-10-30T06:00:01;2.38;;;1.02;;
64225;SDS011;50545;56.064;26.178;2022-10-30T06:02:29;6.72;;;1.45;;
64225;SDS011;50545;56.064;26.178;2022-10-30T06:04:56;2.83;;;1.10;;
64225;SDS011;50545;56.064;26.178;2022-10-30T06:07:23;4.68;;;1.60;;
64225;SDS011;50545;56.064;26.178;2022-10-30T06:09:50;4.05;;;1.40;;
64225;SDS011;50545;56.064;26.178;2022-10-30T06:12:17;5.75;;;1.48;;
64225;SDS011;50545;56.064;26.178;2022-10-30T06:14:45;4.18;;;1.08;;
64225;SDS011;50545;56.064;26.178;2022-10-30T06:17:12;3.13;;;1.23;;
64225;SDS011;50545;56.064;26.178;2022-10-30T06:19:39;4.25;;;0.95;;
64225;SDS011;50545;56.064;26.178;2022-10-30T06:22:06;3.17;;;1.00;;
64225;SDS011;50545;56.064;26.178;2022-10-30T06:24:33;3.35;;;1.13;;
64225;SDS011;50545;56.064;26.178;2022-10-30T06:27:01;4.07;;;1.30;;
64225;SDS011;50545;56.064;26.178;2022-10-30T06:29:28;4.38;;;1.23;;
64225;SDS011;50545;56.064;26.178;2022-10-30T06:31:55;5.07;;;1.40;;
64225;SDS011;50545;56.064;26.178;2022-10-30T06:34:27;3.42;;;1.10;;
64225;SDS011;50545;56.064;26.178;2022-10-30T06:36:54;2.65;;;0.90;;
64225;SDS011;50545;56.064;26.178;2022-10-30T06:39:21;5.07;;;1.60;;
64225;SDS011;50545;56.064;26.178;2022-10-30T06:41:51;6.50;;;1.60;;
64225;SDS011;50545;56.064;26.178;2022-10-30T06:44:18;3.85;;;1.00;;
64225;SDS011;50545;56.064;26.178;2022-10-30T06:46:45;2.70;;;0.88;;
64225;SDS011;50545;56.064;26.178;2022-10-30T06:49:12;1.80;;;0.75;;
64225;SDS011;50545;56.064;26.178;2022-10-30T06:51:39;4.65;;;1.40;;
64225;SDS011;50545;56.064;26.178;2022-10-30T06:54:07;4.90;;;1.25;;
64225;SDS011;50545;56.064;26.178;2022-10-30T06:56:34;4.35;;;1.23;;
64225;SDS011;50545;56.064;26.178;2022-10-30T06:59:01;4.05;;;1.27;;
64225;SDS011;50545;56.064;26.178;2022-10-30T07:01:29;6.10;;;1.52;;
64225;SDS011;50545;56.064;26.178;2022-10-30T07:03:56;3.05;;;1.00;;
64225;SDS011;50545;56.064;26.178;2022-10-30T07:06:23;3.72;;;1.30;;
64225;SDS011;50545;56.064;26.178;2022-10-30T07:08:50;4.95;;;1.45;;
64225;SDS011;50545;56.064;26.178;2022-10-30T07:11:17;5.03;;;1.20;;
64225;SDS011;50545;56.064;26.178;2022-10-30T07:13:45;4.05;;;1.17;;
64225;SDS011;50545;56.064;26.178;2022-10-30T07:16:12;2.75;;;1.00;;
64225;SDS011;50545;56.064;26.178;2022-10-30T07:18:40;3.00;;;1.20;;
64225;SDS011;50545;56.064;26.178;2022-10-30T07:21:07;5.47;;;1.40;;
64225;SDS011;50545;56.064;26.178;2022-10-30T07:23:34;3.22;;;0.80;;
64225;SDS011;50545;56.064;26.178;2022-10-30T07:26:01;4.78;;;1.30;;
64225;SDS011;50545;56.064;26.178;2022-10-30T07:28:29;4.07;;;1.08;;
64225;SDS011;50545;56.064;26.178;2022-10-30T07:30:57;4.90;;;0.98;;
64225;SDS011;50545;56.064;26.178;2022-10-30T07:33:24;4.60;;;1.20;;
64225;SDS011;50545;56.064;26.178;2022-10-30T07:35:52;2.65;;;1.52;;
64225;SDS011;50545;56.064;26.178;2022-10-30T07:38:19;7.57;;;1.58;;
64225;SDS011;50545;56.064;26.178;2022-10-30T07:40:51;4.25;;;1.27;;
64225;SDS011;50545;56.064;26.178;2022-10-30T07:43:19;3.47;;;1.30;;
64225;SDS011;50545;56.064;26.178;2022-10-30T07:45:46;3.72;;;1.25;;
64225;SDS011;50545;56.064;26.178;2022-10-30T07:48:13;5.22;;;1.45;;
64225;SDS011;50545;56.064;26.178;2022-10-30T07:50:40;4.20;;;1.35;;
64225;SDS011;50545;56.064;26.178;2022-10-30T07:53:07;3.85;;;1.20;;
64225;SDS011;50545;56.064;26.178;2022-10-30T07:55:35;4.95;;;1.27;;
64225;SDS011;50545;56.064;26.178;2022-10-30T07:58:02;3.78;;;1.02;;
64225;SDS011;50545;56.064;26.178;2022-10-30T08:00:29;1.02;;;0.52;;
64225;SDS011;50545;56.064;26.178;2022-10-30T08:02:56;3.65;;;1.10;;
64225;SDS011;50545;56.064;26.178;2022-10-30T08:05:24;4.72;;;0.93;;
64225;SDS011;50545;56.064;26.178;2022-10-30T08:07:55;5.95;;;1.13;;
64225;SDS011;50545;56.064;26.178;2022-10-30T08:10:23;3.75;;;1.30;;
64225;SDS011;50545;56.064;26.178;2022-10-30T08:12:51;3.35;;;1.17;;
64225;SDS011;50545;56.064;26.178;2022-10-30T08:15:18;1.95;;;0.75;;
64225;SDS011;50545;56.064;26.178;2022-10-30T08:17:46;3.47;;;1.15;;
64225;SDS011;50545;56.064;26.178;2022-10-30T08:20:16;2.83;;;1.02;;
64225;SDS011;50545;56.064;26.178;2022-10-30T08:22:47;3.20;;;1.10;;
64225;SDS011;50545;56.064;26.178;2022-10-30T08:25:16;3.38;;;1.10;;
64225;SDS011;50545;56.064;26.178;2022-10-30T08:27:48;5.75;;;1.70;;
64225;SDS011;50545;56.064;26.178;2022-10-30T08:30:24;1.73;;;0.82;;
64225;SDS011;50545;56.064;26.178;2022-10-30T08:32:57;6.75;;;1.20;;
64225;SDS011;50545;56.064;26.178;2022-10-30T08:35:25;3.33;;;1.30;;
64225;SDS011;50545;56.064;26.178;2022-10-30T08:37:53;3.97;;;0.93;;
64225;SDS011;50545;56.064;26.178;2022-10-30T08:40:23;5.25;;;1.40;;
64225;SDS011;50545;56.064;26.178;2022-10-30T08:42:55;4.78;;;1.50;;
64225;SDS011;50545;56.064;26.178;2022-10-30T08:45:23;3.47;;;1.15;;
64225;SDS011;50545;56.064;26.178;2022-10-30T08:48:00;3.88;;;1.05;;
64225;SDS011;50545;56.064;26.178;2022-10-30T08:50:32;4.53;;;0.95;;
64225;SDS011;50545;56.064;26.178;2022-10-30T08:53:03;1.50;;;0.63;;
64225;SDS011;50545;56.064;26.178;2022-10-30T08:55:32;2.63;;;0.90;;
64225;SDS011;50545;56.064;26.178;2022-10-30T08:58:00;4.03;;;1.20;;
64225;SDS011;50545;56.064;26.178;2022-10-30T09:00:28;4.47;;;1.15;;
64225;SDS011;50545;56.064;26.178;2022-10-30T09:02:56;5.22;;;1.40;;
64225;SDS011;50545;56.064;26.178;2022-10-30T09:05:23;3.30;;;0.80;;
64225;SDS011;50545;56.064;26.178;2022-10-30T09:07:54;4.65;;;1.30;;
64225;SDS011;50545;56.064;26.178;2022-10-30T09:10:23;1.98;;;0.80;;
64225;SDS011;50545;56.064;26.178;2022-10-30T09:12:57;3.45;;;1.40;;
64225;SDS011;50545;56.064;26.178;2022-10-30T09:15:25;4.38;;;1.10;;
64225;SDS011;50545;56.064;26.178;2022-10-30T09:17:56;3.65;;;1.10;;
64225;SDS011;50545;56.064;26.178;2022-10-30T09:20:25;2.90;;;0.85;;
64225;SDS011;50545;56.064;26.178;2022-10-30T09:22:53;4.53;;;1.08;;
64225;SDS011;50545;56.064;26.178;2022-10-30T09:25:20;2.33;;;0.90;;
64225;SDS011;50545;56.064;26.178;2022-10-30T09:27:48;2.92;;;1.13;;
64225;SDS011;50545;56.064;26.178;2022-10-30T09:30:15;3.47;;;0.90;;
64225;SDS011;50545;56.064;26.178;2022-10-30T09:32:42;4.93;;;1.10;;
64225;SDS011;50545;56.064;26.178;2022-10-30T09:35:09;2.45;;;0.80;;
64225;SDS011;50545;56.064;26.178;2022-10-30T09:37:37;5.25;;;1.08;;
64225;SDS011;50545;56.064;26.178;2022-10-30T09:40:05;2.88;;;0.88;;
64225;SDS011;50545;56.064;26.178;2022-10-30T09:42:40;2.72;;;0.80;;
64225;SDS011;50545;56.064;26.178;2022-10-30T09:51:09;4.28;;;1.35;;
64225;SDS011;50545;56.064;26.178;2022-10-30T09:59:36;2.53;;;0.90;;
64225;SDS011;50545;56.064;26.178;2022-10-30T10:04:52;4.43;;;1.10;;
64225;SDS011;50545;56.064;26.178;2022-10-30T10:07:43;2.67;;;0.80;;
64225;SDS011;50545;56.064;26.178;2022-10-30T10:10:37;3.38;;;1.10;;
64225;SDS011;50545;56.064;26.178;2022-10-30T10:16:15;3.33;;;0.95;;
64225;SDS011;50545;56.064;26.178;2022-10-30T10:21:18;3.30;;;1.10;;
64225;SDS011;50545;56.064;26.178;2022-10-30T10:23:53;3.63;;;1.17;;
64225;SDS011;50545;56.064;26.178;2022-10-30T10:26:25;2.67;;;0.98;;
64225;SDS011;50545;56.064;26.178;2022-10-30T10:29:16;4.78;;;1.25;;
64225;SDS011;50545;56.064;26.178;2022-10-30T10:38:04;2.47;;;0.90;;
64225;SDS011;50545;56.064;26.178;2022-10-30T10:48:55;3.80;;;0.93;;
64225;SDS011;50545;56.064;26.178;2022-10-30T10:54:33;4.45;;;1.27;;
64225;SDS011;50545;56.064;26.178;2022-10-30T11:00:00;3.33;;;0.82;;
64225;SDS011;50545;56.064;26.178;2022-10-30T11:02:37;4.07;;;1.00;;
64225;SDS011;50545;56.064;26.178;2022-10-30T11:05:31;2.72;;;0.60;;
64225;SDS011;50545;56.064;26.178;2022-10-30T11:08:37;1.35;;;0.68;;
64225;SDS011;50545;56.064;26.178;2022-10-30T11:10:58;3.83;;;0.90;;
64225;SDS011;50545;56.064;26.178;2022-10-30T11:13:33;2.47;;;0.75;;
64225;SDS011;50545;56.064;26.178;2022-10-30T11:19:03;4.07;;;1.00;;
64225;SDS011;50545;56.064;26.178;2022-10-30T11:21:37;2.05;;;0.93;;
64225;SDS011;50545;56.064;26.178;2022-10-30T11:24:27;2.88;;;0.75;;
64225;SDS011;50545;56.064;26.178;2022-10-30T11:32:20;2.05;;;0.73;;
64225;SDS011;50545;56.064;26.178;2022-10-30T11:37:35;2.20;;;0.80;;
64225;SDS011;50545;56.064;26.178;2022-10-30T11:42:37;3.38;;;1.08;;
64225;SDS011;50545;56.064;26.178;2022-10-30T11:45:19;2.90;;;1.30;;
64225;SDS011;50545;56.064;26.178;2022-10-30T11:47:51;3.85;;;1.02;;
64225;SDS011;50545;56.064;26.178;2022-10-30T11:50:29;3.15;;;0.98;;
64225;SDS011;50545;56.064;26.178;2022-10-30T11:52:59;2.28;;;0.88;;
64225;SDS011;50545;56.064;26.178;2022-10-30T11:55:34;3.35;;;0.95;;
64225;SDS011;50545;56.064;26.178;2022-10-30T11:58:04;3.10;;;0.70;;
64225;SDS011;50545;56.064;26.178;2022-10-30T12:00:35;4.25;;;1.08;;
64225;SDS011;50545;56.064;26.178;2022-10-30T12:03:09;2.75;;;0.88;;
64225;SDS011;50545;56.064;26.178;2022-10-30T12:06:06;2.03;;;0.88;;
64225;SDS011;50545;56.064;26.178;2022-10-30T12:09:02;1.83;;;0.93;;
64225;SDS011;50545;56.064;26.178;2022-10-30T12:11:38;2.38;;;0.70;;
64225;SDS011;50545;56.064;26.178;2022-10-30T12:16:55;3.42;;;1.05;;
64225;SDS011;50545;56.064;26.178;2022-10-30T12:19:23;3.03;;;1.02;;
64225;SDS011;50545;56.064;26.178;2022-10-30T12:21:52;4.95;;;1.10;;
64225;SDS011;50545;56.064;26.178;2022-10-30T12:24:25;2.22;;;0.85;;
64225;SDS011;50545;56.064;26.178;2022-10-30T12:26:59;3.58;;;0.80;;
64225;SDS011;50545;56.064;26.178;2022-10-30T12:32:37;2.90;;;1.08;;
64225;SDS011;50545;56.064;26.178;2022-10-30T12:47:26;1.42;;;1.00;;
64225;SDS011;50545;56.064;26.178;2022-10-30T12:53:25;3.28;;;1.17;;
64225;SDS011;50545;56.064;26.178;2022-10-30T12:56:15;2.55;;;1.10;;
64225;SDS011;50545;56.064;26.178;2022-10-30T12:58:56;3.80;;;1.27;;
64225;SDS011;50545;56.064;26.178;2022-10-30T13:06:53;2.75;;;1.00;;
64225;SDS011;50545;56.064;26.178;2022-10-30T13:12:41;3.97;;;1.27;;
64225;SDS011;50545;56.064;26.178;2022-10-30T13:17:42;1.83;;;0.85;;
64225;SDS011;50545;56.064;26.178;2022-10-30T13:20:10;3.47;;;1.13;;
64225;SDS011;50545;56.064;26.178;2022-10-30T13:25:35;3.00;;;1.02;;
64225;SDS011;50545;56.064;26.178;2022-10-30T13:28:15;2.42;;;0.85;;
64225;SDS011;50545;56.064;26.178;2022-10-30T13:31:06;2.42;;;0.82;;
64225;SDS011;50545;56.064;26.178;2022-10-30T13:33:49;3.38;;;0.90;;
64225;SDS011;50545;56.064;26.178;2022-10-30T13:36:31;2.00;;;1.10;;
64225;SDS011;50545;56.064;26.178;2022-10-30T13:53:38;2.53;;;0.98;;
64225;SDS011;50545;56.064;26.178;2022-10-30T13:56:08;2.10;;;1.02;;
64225;SDS011;50545;56.064;26.178;2022-10-30T13:59:06;3.20;;;0.90;;
64225;SDS011;50545;56.064;26.178;2022-10-30T14:04:48;1.60;;;0.82;;
64225;SDS011;50545;56.064;26.178;2022-10-30T14:07:35;2.53;;;0.82;;
64225;SDS011;50545;56.064;26.178;2022-10-30T14:15:33;2.77;;;1.10;;
64225;SDS011;50545;56.064;26.178;2022-10-30T14:20:44;1.80;;;0.77;;
64225;SDS011;50545;56.064;26.178;2022-10-30T14:26:27;5.57;;;1.20;;
64225;SDS011;50545;56.064;26.178;2022-10-30T14:28:36;5.18;;;1.10;;
64225;SDS011;50545;56.064;26.178;2022-10-30T14:31:18;3.53;;;0.90;;
64225;SDS011;50545;56.064;26.178;2022-10-30T14:33:58;3.15;;;1.25;;
64225;SDS011;50545;56.064;26.178;2022-10-30T14:49:56;1.45;;;0.95;;
64225;SDS011;50545;56.064;26.178;2022-10-30T15:01:44;2.15;;;0.95;;
64225;SDS011;50545;56.064;26.178;2022-10-30T15:07:30;2.72;;;1.10;;
64225;SDS011;50545;56.064;26.178;2022-10-30T15:10:30;3.58;;;1.30;;
64225;SDS011;50545;56.064;26.178;2022-10-30T15:13:04;1.13;;;0.82;;
64225;SDS011;50545;56.064;26.178;2022-10-30T15:16:02;3.08;;;0.88;;
64225;SDS011;50545;56.064;26.178;2022-10-30T15:18:32;2.05;;;0.75;;
64225;SDS011;50545;56.064;26.178;2022-10-30T15:21:02;1.77;;;0.90;;
64225;SDS011;50545;56.064;26.178;2022-10-30T15:23:35;1.75;;;0.82;;
64225;SDS011;50545;56.064;26.178;2022-10-30T15:26:06;4.25;;;0.82;;
64225;SDS011;50545;56.064;26.178;2022-10-30T15:28:42;2.35;;;0.80;;
64225;SDS011;50545;56.064;26.178;2022-10-30T15:33:43;5.00;;;1.30;;
64225;SDS011;50545;56.064;26.178;2022-10-30T15:36:17;1.83;;;0.80;;
64225;SDS011;50545;56.064;26.178;2022-10-30T15:41:33;2.80;;;0.82;;
64225;SDS011;50545;56.064;26.178;2022-10-30T15:44:03;1.10;;;0.75;;
64225;SDS011;50545;56.064;26.178;2022-10-30T15:46:31;2.10;;;0.60;;
64225;SDS011;50545;56.064;26.178;2022-10-30T15:48:58;1.42;;;0.70;;
64225;SDS011;50545;56.064;26.178;2022-10-30T15:51:25;2.40;;;1.00;;
64225;SDS011;50545;56.064;26.178;2022-10-30T15:53:57;3.13;;;0.90;;
64225;SDS011;50545;56.064;26.178;2022-10-30T15:58:58;3.00;;;1.00;;
64225;SDS011;50545;56.064;26.178;2022-10-30T16:01:31;1.17;;;0.65;;
64225;SDS011;50545;56.064;26.178;2022-10-30T16:04:00;2.92;;;0.90;;
64225;SDS011;50545;56.064;26.178;2022-10-30T16:06:28;2.05;;;0.75;;
64225;SDS011;50545;56.064;26.178;2022-10-30T16:08:56;1.42;;;0.52;;
64225;SDS011;50545;56.064;26.178;2022-10-30T16:11:24;3.28;;;0.93;;
64225;SDS011;50545;56.064;26.178;2022-10-30T16:13:52;2.30;;;0.70;;
64225;SDS011;50545;56.064;26.178;2022-10-30T16:16:26;2.45;;;0.60;;
64225;SDS011;50545;56.064;26.178;2022-10-30T16:18:57;2.00;;;0.60;;
64225;SDS011;50545;56.064;26.178;2022-10-30T16:21:26;2.93;;;1.23;;
64225;SDS011;50545;56.064;26.178;2022-10-30T16:24:00;2.88;;;1.15;;
64225;SDS011;50545;56.064;26.178;2022-10-30T16:26:34;3.22;;;0.85;;
64225;SDS011;50545;56.064;26.178;2022-10-30T16:31:48;2.35;;;0.60;;
64225;SDS011;50545;56.064;26.178;2022-10-30T16:34:31;1.92;;;0.68;;
64225;SDS011;50545;56.064;26.178;2022-10-30T16:37:04;1.73;;;0.80;;
64225;SDS011;50545;56.064;26.178;2022-10-30T16:39:32;0.98;;;0.68;;
64225;SDS011;50545;56.064;26.178;2022-10-30T16:42:00;1.95;;;0.50;;
64225;SDS011;50545;56.064;26.178;2022-10-30T16:44:29;1.42;;;0.63;;
64225;SDS011;50545;56.064;26.178;2022-10-30T16:49:44;1.20;;;0.57;;
64225;SDS011;50545;56.064;26.178;2022-10-30T16:52:15;2.20;;;0.68;;
64225;SDS011;50545;56.064;26.178;2022-10-30T16:54:46;2.15;;;0.65;;
64225;SDS011;50545;56.064;26.178;2022-10-30T16:57:23;3.72;;;0.93;;
64225;SDS011;50545;56.064;26.178;2022-10-30T16:59:56;1.63;;;0.70;;
64225;SDS011;50545;56.064;26.178;2022-10-30T17:02:25;1.92;;;0.93;;
64225;SDS011;50545;56.064;26.178;2022-10-30T17:04:56;3.40;;;1.00;;
64225;SDS011;50545;56.064;26.178;2022-10-30T17:08:00;1.27;;;0.70;;
64225;SDS011;50545;56.064;26.178;2022-10-30T17:10:56;1.58;;;0.60;;
64225;SDS011;50545;56.064;26.178;2022-10-30T17:16:24;3.38;;;0.88;;
64225;SDS011;50545;56.064;26.178;2022-10-30T17:19:00;2.65;;;0.90;;
64225;SDS011;50545;56.064;26.178;2022-10-30T17:21:49;5.20;;;0.73;;
64225;SDS011;50545;56.064;26.178;2022-10-30T17:24:19;3.67;;;1.15;;
64225;SDS011;50545;56.064;26.178;2022-10-30T17:26:53;1.00;;;0.70;;
64225;SDS011;50545;56.064;26.178;2022-10-30T17:32:26;3.50;;;0.95;;
64225;SDS011;50545;56.064;26.178;2022-10-30T17:34:57;4.20;;;1.02;;
64225;SDS011;50545;56.064;26.178;2022-10-30T17:37:28;3.45;;;1.00;;
64225;SDS011;50545;56.064;26.178;2022-10-30T17:39:55;1.95;;;0.73;;
64225;SDS011;50545;56.064;26.178;2022-10-30T17:42:22;3.45;;;0.95;;
64225;SDS011;50545;56.064;26.178;2022-10-30T17:44:49;2.13;;;1.33;;
64225;SDS011;50545;56.064;26.178;2022-10-30T17:47:18;1.25;;;0.70;;
64225;SDS011;50545;56.064;26.178;2022-10-30T17:49:46;1.48;;;0.80;;
64225;SDS011;50545;56.064;26.178;2022-10-30T17:52:15;2.63;;;0.60;;
64225;SDS011;50545;56.064;26.178;2022-10-30T17:54:45;1.55;;;0.77;;
64225;SDS011;50545;56.064;26.178;2022-10-30T17:57:13;1.50;;;0.70;;
64225;SDS011;50545;56.064;26.178;2022-10-30T17:59:40;4.38;;;0.90;;
64225;SDS011;50545;56.064;26.178;2022-10-30T18:02:13;4.15;;;1.08;;
64225;SDS011;50545;56.064;26.178;2022-10-30T18:04:42;0.90;;;0.70;;